sensor_id;sensor_type;location;lat;lon;timestamp;P1;durP1;ratioP1;P2;durP2;ratioP2
30697;SDS011;17448;47.200;10.902;2023-06-24T00:00:01;6.38;;;5.40;;
30697;SDS011;17448;47.200;10.902;2023-06-24T00:02:32;7.72;;;5.25;;
30697;SDS011;17448;47.200;10.902;2023-06-24T00:05:01;8.45;;;5.25;;
30697;SDS011;17448;47.200;10.902;2023-06-24T00:07:29;6.10;;;4.72;;
30697;SDS011;17448;47.200;10.902;2023-06-24T00:09:55;7.40;;;5.25;;
30697;SDS011;17448;47.200;10.902;2023-06-24T00:12:21;9.38;;;5.43;;
30697;SDS011;17448;47.200;10.902;2023-06-24T00:14:47;7.20;;;4.85;;
30697;SDS011;17448;47.200;10.902;2023-06-24T00:17:14;7.40;;;5.07;;
30697;SDS011;17448;47.200;10.902;2023-06-24T00:19:41;6.15;;;4.93;;
30697;SDS011;17448;47.200;10.902;2023-06-24T00:22:09;7.70;;;4.88;;
30697;SDS011;17448;47.200;10.902;2023-06-24T00:24:35;6.00;;;5.05;;
30697;SDS011;17448;47.200;10.902;2023-06-24T00:27:01;6.38;;;4.82;;
30697;SDS011;17448;47.200;10.902;2023-06-24T00:29:27;5.50;;;4.63;;
30697;SDS011;17448;47.200;10.902;2023-06-24T00:31:54;5.65;;;4.60;;
30697;SDS011;17448;47.200;10.902;2023-06-24T00:34:20;6.63;;;5.47;;
30697;SDS011;17448;47.200;10.902;2023-06-24T00:36:46;7.25;;;4.85;;
30697;SDS011;17448;47.200;10.902;2023-06-24T00:39:12;6.78;;;4.35;;
30697;SDS011;17448;47.200;10.902;2023-06-24T00:41:39;7.80;;;4.97;;
30697;SDS011;17448;47.200;10.902;2023-06-24T00:44:05;5.40;;;4.43;;
30697;SDS011;17448;47.200;10.902;2023-06-24T00:46:35;6.30;;;4.45;;
30697;SDS011;17448;47.200;10.902;2023-06-24T00:49:01;5.95;;;4.43;;
30697;SDS011;17448;47.200;10.902;2023-06-24T00:51:28;6.82;;;4.97;;
30697;SDS011;17448;47.200;10.902;2023-06-24T00:53:59;7.22;;;4.75;;
30697;SDS011;17448;47.200;10.902;2023-06-24T00:56:28;5.30;;;4.60;;
30697;SDS011;17448;47.200;10.902;2023-06-24T00:58:56;7.00;;;4.25;;
30697;SDS011;17448;47.200;10.902;2023-06-24T01:01:24;5.60;;;4.38;;
30697;SDS011;17448;47.200;10.902;2023-06-24T01:03:51;7.35;;;5.47;;
30697;SDS011;17448;47.200;10.902;2023-06-24T01:06:17;6.40;;;4.47;;
30697;SDS011;17448;47.200;10.902;2023-06-24T01:08:44;7.55;;;4.85;;
30697;SDS011;17448;47.200;10.902;2023-06-24T01:11:15;6.65;;;4.97;;
30697;SDS011;17448;47.200;10.902;2023-06-24T01:13:42;6.82;;;5.10;;
30697;SDS011;17448;47.200;10.902;2023-06-24T01:16:10;8.40;;;4.70;;
30697;SDS011;17448;47.200;10.902;2023-06-24T01:18:46;6.55;;;4.70;;
30697;SDS011;17448;47.200;10.902;2023-06-24T01:36:21;6.97;;;5.18;;
30697;SDS011;17448;47.200;10.902;2023-06-24T01:38:52;9.30;;;5.80;;
30697;SDS011;17448;47.200;10.902;2023-06-24T01:41:22;6.82;;;5.32;;
30697;SDS011;17448;47.200;10.902;2023-06-24T01:43:50;6.00;;;4.82;;
30697;SDS011;17448;47.200;10.902;2023-06-24T01:46:19;8.05;;;5.72;;
30697;SDS011;17448;47.200;10.902;2023-06-24T01:48:47;6.60;;;5.03;;
30697;SDS011;17448;47.200;10.902;2023-06-24T01:51:20;8.52;;;5.35;;
30697;SDS011;17448;47.200;10.902;2023-06-24T01:53:48;7.45;;;5.07;;
30697;SDS011;17448;47.200;10.902;2023-06-24T01:56:17;6.80;;;5.40;;
30697;SDS011;17448;47.200;10.902;2023-06-24T01:58:46;6.95;;;5.68;;
30697;SDS011;17448;47.200;10.902;2023-06-24T02:01:13;6.13;;;4.68;;
30697;SDS011;17448;47.200;10.902;2023-06-24T02:03:41;9.25;;;5.07;;
30697;SDS011;17448;47.200;10.902;2023-06-24T02:06:08;7.70;;;5.10;;
30697;SDS011;17448;47.200;10.902;2023-06-24T02:08:35;6.45;;;4.65;;
30697;SDS011;17448;47.200;10.902;2023-06-24T02:11:02;6.82;;;4.75;;
30697;SDS011;17448;47.200;10.902;2023-06-24T02:13:30;6.95;;;4.55;;
30697;SDS011;17448;47.200;10.902;2023-06-24T02:16:03;6.07;;;4.82;;
30697;SDS011;17448;47.200;10.902;2023-06-24T02:18:32;6.93;;;4.78;;
30697;SDS011;17448;47.200;10.902;2023-06-24T02:20:59;6.10;;;4.85;;
30697;SDS011;17448;47.200;10.902;2023-06-24T02:23:27;5.85;;;4.63;;
30697;SDS011;17448;47.200;10.902;2023-06-24T02:25:54;7.05;;;4.30;;
30697;SDS011;17448;47.200;10.902;2023-06-24T02:28:21;5.80;;;4.72;;
30697;SDS011;17448;47.200;10.902;2023-06-24T02:30:48;7.75;;;5.10;;
30697;SDS011;17448;47.200;10.902;2023-06-24T02:33:15;6.63;;;4.88;;
30697;SDS011;17448;47.200;10.902;2023-06-24T02:35:42;8.05;;;4.93;;
30697;SDS011;17448;47.200;10.902;2023-06-24T02:38:11;6.75;;;4.50;;
30697;SDS011;17448;47.200;10.902;2023-06-24T02:40:37;7.13;;;5.00;;
30697;SDS011;17448;47.200;10.902;2023-06-24T02:43:04;7.93;;;4.88;;
30697;SDS011;17448;47.200;10.902;2023-06-24T02:45:30;7.80;;;4.85;;
30697;SDS011;17448;47.200;10.902;2023-06-24T02:47:57;5.93;;;4.60;;
30697;SDS011;17448;47.200;10.902;2023-06-24T02:50:25;6.78;;;4.68;;
30697;SDS011;17448;47.200;10.902;2023-06-24T02:52:53;8.50;;;5.63;;
30697;SDS011;17448;47.200;10.902;2023-06-24T02:55:25;6.25;;;4.50;;
30697;SDS011;17448;47.200;10.902;2023-06-24T02:57:57;7.65;;;5.07;;
30697;SDS011;17448;47.200;10.902;2023-06-24T03:00:27;8.07;;;5.30;;
30697;SDS011;17448;47.200;10.902;2023-06-24T03:03:06;6.45;;;4.85;;
30697;SDS011;17448;47.200;10.902;2023-06-24T03:05:35;5.88;;;4.70;;
30697;SDS011;17448;47.200;10.902;2023-06-24T03:08:02;7.05;;;4.80;;
30697;SDS011;17448;47.200;10.902;2023-06-24T03:10:33;6.30;;;5.03;;
30697;SDS011;17448;47.200;10.902;2023-06-24T03:13:03;5.55;;;4.45;;
30697;SDS011;17448;47.200;10.902;2023-06-24T03:15:38;6.72;;;5.13;;
30697;SDS011;17448;47.200;10.902;2023-06-24T03:18:05;7.28;;;5.00;;
30697;SDS011;17448;47.200;10.902;2023-06-24T03:20:31;6.63;;;4.93;;
30697;SDS011;17448;47.200;10.902;2023-06-24T03:23:06;6.63;;;4.72;;
30697;SDS011;17448;47.200;10.902;2023-06-24T03:25:33;8.30;;;5.05;;
30697;SDS011;17448;47.200;10.902;2023-06-24T03:27:59;6.07;;;4.93;;
30697;SDS011;17448;47.200;10.902;2023-06-24T03:30:27;5.53;;;4.53;;
30697;SDS011;17448;47.200;10.902;2023-06-24T03:32:55;5.72;;;4.53;;
30697;SDS011;17448;47.200;10.902;2023-06-24T03:35:23;5.93;;;4.60;;
30697;SDS011;17448;47.200;10.902;2023-06-24T03:37:53;6.72;;;4.88;;
30697;SDS011;17448;47.200;10.902;2023-06-24T03:40:19;7.28;;;5.00;;
30697;SDS011;17448;47.200;10.902;2023-06-24T03:42:46;5.75;;;4.72;;
30697;SDS011;17448;47.200;10.902;2023-06-24T03:45:12;6.82;;;4.57;;
30697;SDS011;17448;47.200;10.902;2023-06-24T03:47:38;6.10;;;4.88;;
30697;SDS011;17448;47.200;10.902;2023-06-24T03:50:05;6.20;;;4.75;;
30697;SDS011;17448;47.200;10.902;2023-06-24T03:52:32;8.82;;;4.45;;
30697;SDS011;17448;47.200;10.902;2023-06-24T03:54:58;6.22;;;4.60;;
30697;SDS011;17448;47.200;10.902;2023-06-24T03:57:26;5.80;;;4.28;;
30697;SDS011;17448;47.200;10.902;2023-06-24T03:59:53;5.70;;;4.57;;
30697;SDS011;17448;47.200;10.902;2023-06-24T04:02:20;7.70;;;4.95;;
30697;SDS011;17448;47.200;10.902;2023-06-24T04:04:47;6.47;;;4.63;;
30697;SDS011;17448;47.200;10.902;2023-06-24T04:07:18;5.72;;;4.50;;
30697;SDS011;17448;47.200;10.902;2023-06-24T04:09:55;7.95;;;4.60;;
30697;SDS011;17448;47.200;10.902;2023-06-24T04:12:22;6.45;;;4.80;;
30697;SDS011;17448;47.200;10.902;2023-06-24T04:14:48;6.50;;;4.38;;
30697;SDS011;17448;47.200;10.902;2023-06-24T04:17:14;6.70;;;4.93;;
30697;SDS011;17448;47.200;10.902;2023-06-24T04:19:41;6.85;;;4.60;;
30697;SDS011;17448;47.200;10.902;2023-06-24T04:22:07;5.82;;;4.47;;
30697;SDS011;17448;47.200;10.902;2023-06-24T04:24:33;6.07;;;4.80;;
30697;SDS011;17448;47.200;10.902;2023-06-24T04:27:00;5.90;;;4.55;;
30697;SDS011;17448;47.200;10.902;2023-06-24T04:29:26;19.38;;;4.95;;
30697;SDS011;17448;47.200;10.902;2023-06-24T04:31:52;5.53;;;4.28;;
30697;SDS011;17448;47.200;10.902;2023-06-24T04:34:18;6.45;;;4.43;;
30697;SDS011;17448;47.200;10.902;2023-06-24T04:36:45;5.53;;;4.40;;
30697;SDS011;17448;47.200;10.902;2023-06-24T04:39:12;6.28;;;4.70;;
30697;SDS011;17448;47.200;10.902;2023-06-24T04:41:39;7.07;;;4.00;;
30697;SDS011;17448;47.200;10.902;2023-06-24T04:44:05;6.05;;;4.55;;
30697;SDS011;17448;47.200;10.902;2023-06-24T04:46:32;6.85;;;4.70;;
30697;SDS011;17448;47.200;10.902;2023-06-24T04:48:59;5.68;;;4.60;;
30697;SDS011;17448;47.200;10.902;2023-06-24T04:51:25;6.00;;;4.07;;
30697;SDS011;17448;47.200;10.902;2023-06-24T04:53:52;6.43;;;5.28;;
30697;SDS011;17448;47.200;10.902;2023-06-24T04:56:18;6.10;;;4.95;;
30697;SDS011;17448;47.200;10.902;2023-06-24T04:58:44;6.28;;;4.63;;
30697;SDS011;17448;47.200;10.902;2023-06-24T05:01:10;5.82;;;5.10;;
30697;SDS011;17448;47.200;10.902;2023-06-24T05:03:36;7.60;;;5.25;;
30697;SDS011;17448;47.200;10.902;2023-06-24T05:06:03;5.70;;;4.32;;
30697;SDS011;17448;47.200;10.902;2023-06-24T05:08:29;6.43;;;4.95;;
30697;SDS011;17448;47.200;10.902;2023-06-24T05:10:55;6.50;;;4.55;;
30697;SDS011;17448;47.200;10.902;2023-06-24T05:13:22;7.05;;;4.72;;
30697;SDS011;17448;47.200;10.902;2023-06-24T05:15:48;5.03;;;4.30;;
30697;SDS011;17448;47.200;10.902;2023-06-24T05:18:14;6.68;;;4.68;;
30697;SDS011;17448;47.200;10.902;2023-06-24T05:20:41;6.45;;;4.40;;
30697;SDS011;17448;47.200;10.902;2023-06-24T05:23:07;6.63;;;5.00;;
30697;SDS011;17448;47.200;10.902;2023-06-24T05:25:33;7.40;;;4.88;;
30697;SDS011;17448;47.200;10.902;2023-06-24T05:28:00;6.32;;;4.60;;
30697;SDS011;17448;47.200;10.902;2023-06-24T05:30:26;6.10;;;4.60;;
30697;SDS011;17448;47.200;10.902;2023-06-24T05:32:53;5.25;;;4.45;;
30697;SDS011;17448;47.200;10.902;2023-06-24T05:35:19;6.25;;;4.40;;
30697;SDS011;17448;47.200;10.902;2023-06-24T05:37:45;5.93;;;4.43;;
30697;SDS011;17448;47.200;10.902;2023-06-24T05:40:11;5.30;;;4.40;;
30697;SDS011;17448;47.200;10.902;2023-06-24T05:42:38;5.10;;;4.20;;
30697;SDS011;17448;47.200;10.902;2023-06-24T05:45:10;6.88;;;4.57;;
30697;SDS011;17448;47.200;10.902;2023-06-24T05:47:40;5.82;;;4.50;;
30697;SDS011;17448;47.200;10.902;2023-06-24T05:50:07;5.05;;;4.30;;
30697;SDS011;17448;47.200;10.902;2023-06-24T05:52:33;6.32;;;4.57;;
30697;SDS011;17448;47.200;10.902;2023-06-24T05:54:59;6.55;;;4.85;;
30697;SDS011;17448;47.200;10.902;2023-06-24T05:57:25;4.90;;;4.22;;
30697;SDS011;17448;47.200;10.902;2023-06-24T05:59:51;5.68;;;4.70;;
30697;SDS011;17448;47.200;10.902;2023-06-24T06:02:18;6.18;;;4.88;;
30697;SDS011;17448;47.200;10.902;2023-06-24T06:04:44;6.32;;;4.78;;
30697;SDS011;17448;47.200;10.902;2023-06-24T06:07:10;8.27;;;5.75;;
30697;SDS011;17448;47.200;10.902;2023-06-24T06:09:36;6.45;;;5.00;;
30697;SDS011;17448;47.200;10.902;2023-06-24T06:12:03;6.47;;;4.43;;
30697;SDS011;17448;47.200;10.902;2023-06-24T06:14:29;5.30;;;4.18;;
30697;SDS011;17448;47.200;10.902;2023-06-24T06:16:55;6.80;;;4.65;;
30697;SDS011;17448;47.200;10.902;2023-06-24T06:19:21;6.05;;;4.10;;
30697;SDS011;17448;47.200;10.902;2023-06-24T06:21:48;7.07;;;4.28;;
30697;SDS011;17448;47.200;10.902;2023-06-24T06:24:15;6.68;;;4.43;;
30697;SDS011;17448;47.200;10.902;2023-06-24T06:26:42;5.70;;;4.20;;
30697;SDS011;17448;47.200;10.902;2023-06-24T06:29:09;4.80;;;3.92;;
30697;SDS011;17448;47.200;10.902;2023-06-24T06:31:35;5.78;;;4.32;;
30697;SDS011;17448;47.200;10.902;2023-06-24T06:34:01;10.15;;;4.55;;
30697;SDS011;17448;47.200;10.902;2023-06-24T06:36:28;7.40;;;4.57;;
30697;SDS011;17448;47.200;10.902;2023-06-24T06:38:54;5.38;;;4.43;;
30697;SDS011;17448;47.200;10.902;2023-06-24T06:41:20;7.20;;;5.10;;
30697;SDS011;17448;47.200;10.902;2023-06-24T06:43:50;7.35;;;4.15;;
30697;SDS011;17448;47.200;10.902;2023-06-24T06:46:16;5.43;;;4.60;;
30697;SDS011;17448;47.200;10.902;2023-06-24T06:48:42;8.23;;;4.55;;
30697;SDS011;17448;47.200;10.902;2023-06-24T06:51:09;5.63;;;4.50;;
30697;SDS011;17448;47.200;10.902;2023-06-24T06:53:35;7.70;;;4.60;;
30697;SDS011;17448;47.200;10.902;2023-06-24T06:56:01;8.55;;;5.40;;
30697;SDS011;17448;47.200;10.902;2023-06-24T06:58:28;6.88;;;4.25;;
30697;SDS011;17448;47.200;10.902;2023-06-24T07:00:54;7.78;;;4.55;;
30697;SDS011;17448;47.200;10.902;2023-06-24T07:03:20;9.90;;;6.40;;
30697;SDS011;17448;47.200;10.902;2023-06-24T07:05:47;10.50;;;6.78;;
30697;SDS011;17448;47.200;10.902;2023-06-24T07:08:13;6.68;;;5.07;;
30697;SDS011;17448;47.200;10.902;2023-06-24T07:10:39;6.35;;;4.90;;
30697;SDS011;17448;47.200;10.902;2023-06-24T07:13:05;8.18;;;4.90;;
30697;SDS011;17448;47.200;10.902;2023-06-24T07:15:32;6.25;;;5.05;;
30697;SDS011;17448;47.200;10.902;2023-06-24T07:18:00;6.32;;;4.93;;
30697;SDS011;17448;47.200;10.902;2023-06-24T07:20:26;4.80;;;4.28;;
30697;SDS011;17448;47.200;10.902;2023-06-24T07:22:52;7.40;;;5.28;;
30697;SDS011;17448;47.200;10.902;2023-06-24T07:25:18;5.60;;;4.45;;
30697;SDS011;17448;47.200;10.902;2023-06-24T07:27:45;5.35;;;4.75;;
30697;SDS011;17448;47.200;10.902;2023-06-24T07:30:11;5.90;;;4.82;;
30697;SDS011;17448;47.200;10.902;2023-06-24T07:32:37;6.63;;;5.00;;
30697;SDS011;17448;47.200;10.902;2023-06-24T07:35:04;6.35;;;4.47;;
30697;SDS011;17448;47.200;10.902;2023-06-24T07:37:30;6.55;;;5.05;;
30697;SDS011;17448;47.200;10.902;2023-06-24T07:39:56;7.95;;;4.85;;
30697;SDS011;17448;47.200;10.902;2023-06-24T07:42:22;7.32;;;5.38;;
30697;SDS011;17448;47.200;10.902;2023-06-24T07:44:49;6.88;;;5.10;;
30697;SDS011;17448;47.200;10.902;2023-06-24T07:47:16;5.75;;;4.68;;
30697;SDS011;17448;47.200;10.902;2023-06-24T07:49:46;10.77;;;4.82;;
30697;SDS011;17448;47.200;10.902;2023-06-24T07:52:12;6.70;;;4.70;;
30697;SDS011;17448;47.200;10.902;2023-06-24T07:54:39;5.90;;;4.38;;
30697;SDS011;17448;47.200;10.902;2023-06-24T07:57:05;5.80;;;4.55;;
30697;SDS011;17448;47.200;10.902;2023-06-24T07:59:31;6.22;;;4.28;;
30697;SDS011;17448;47.200;10.902;2023-06-24T08:01:58;4.80;;;4.13;;
30697;SDS011;17448;47.200;10.902;2023-06-24T08:04:24;8.68;;;7.20;;
30697;SDS011;17448;47.200;10.902;2023-06-24T08:06:50;6.05;;;4.45;;
30697;SDS011;17448;47.200;10.902;2023-06-24T08:09:16;5.40;;;4.30;;
30697;SDS011;17448;47.200;10.902;2023-06-24T08:11:43;5.15;;;3.97;;
30697;SDS011;17448;47.200;10.902;2023-06-24T08:14:09;5.05;;;3.92;;
30697;SDS011;17448;47.200;10.902;2023-06-24T08:16:35;7.15;;;4.63;;
30697;SDS011;17448;47.200;10.902;2023-06-24T08:19:02;4.25;;;3.47;;
30697;SDS011;17448;47.200;10.902;2023-06-24T08:21:28;8.63;;;3.78;;
30697;SDS011;17448;47.200;10.902;2023-06-24T08:23:55;4.43;;;3.85;;
30697;SDS011;17448;47.200;10.902;2023-06-24T08:26:21;7.72;;;3.75;;
30697;SDS011;17448;47.200;10.902;2023-06-24T08:28:47;8.32;;;5.60;;
30697;SDS011;17448;47.200;10.902;2023-06-24T08:31:13;7.68;;;5.65;;
30697;SDS011;17448;47.200;10.902;2023-06-24T08:33:43;7.72;;;4.18;;
30697;SDS011;17448;47.200;10.902;2023-06-24T08:36:10;9.70;;;3.92;;
30697;SDS011;17448;47.200;10.902;2023-06-24T08:38:36;8.05;;;3.90;;
30697;SDS011;17448;47.200;10.902;2023-06-24T08:41:03;6.07;;;3.92;;
30697;SDS011;17448;47.200;10.902;2023-06-24T08:43:29;6.15;;;3.78;;
30697;SDS011;17448;47.200;10.902;2023-06-24T08:45:55;9.68;;;8.50;;
30697;SDS011;17448;47.200;10.902;2023-06-24T08:48:21;4.65;;;3.45;;
30697;SDS011;17448;47.200;10.902;2023-06-24T08:50:50;4.70;;;3.15;;
30697;SDS011;17448;47.200;10.902;2023-06-24T08:53:16;3.72;;;3.22;;
30697;SDS011;17448;47.200;10.902;2023-06-24T08:55:45;3.90;;;3.28;;
30697;SDS011;17448;47.200;10.902;2023-06-24T08:58:12;3.63;;;3.15;;
30697;SDS011;17448;47.200;10.902;2023-06-24T09:03:21;5.35;;;3.30;;
30697;SDS011;17448;47.200;10.902;2023-06-24T09:05:48;4.75;;;3.63;;
30697;SDS011;17448;47.200;10.902;2023-06-24T09:08:14;5.30;;;3.63;;
30697;SDS011;17448;47.200;10.902;2023-06-24T09:10:43;4.25;;;3.13;;
30697;SDS011;17448;47.200;10.902;2023-06-24T09:13:10;8.00;;;3.47;;
30697;SDS011;17448;47.200;10.902;2023-06-24T09:15:36;5.00;;;3.30;;
30697;SDS011;17448;47.200;10.902;2023-06-24T09:18:03;3.92;;;3.33;;
30697;SDS011;17448;47.200;10.902;2023-06-24T09:20:30;3.42;;;2.95;;
30697;SDS011;17448;47.200;10.902;2023-06-24T09:22:58;4.22;;;3.40;;
30697;SDS011;17448;47.200;10.902;2023-06-24T09:25:24;3.63;;;2.88;;
30697;SDS011;17448;47.200;10.902;2023-06-24T09:27:50;3.80;;;3.20;;
30697;SDS011;17448;47.200;10.902;2023-06-24T09:30:24;4.63;;;3.17;;
30697;SDS011;17448;47.200;10.902;2023-06-24T09:32:53;5.72;;;3.25;;
30697;SDS011;17448;47.200;10.902;2023-06-24T09:35:21;4.05;;;3.10;;
30697;SDS011;17448;47.200;10.902;2023-06-24T09:37:54;5.18;;;3.25;;
30697;SDS011;17448;47.200;10.902;2023-06-24T09:40:21;3.38;;;2.78;;
30697;SDS011;17448;47.200;10.902;2023-06-24T09:42:49;4.00;;;3.35;;
30697;SDS011;17448;47.200;10.902;2023-06-24T09:45:19;3.40;;;2.90;;
30697;SDS011;17448;47.200;10.902;2023-06-24T09:47:45;3.50;;;2.65;;
30697;SDS011;17448;47.200;10.902;2023-06-24T09:50:11;4.38;;;3.17;;
30697;SDS011;17448;47.200;10.902;2023-06-24T09:52:37;3.72;;;2.78;;
30697;SDS011;17448;47.200;10.902;2023-06-24T09:55:04;4.05;;;3.10;;
30697;SDS011;17448;47.200;10.902;2023-06-24T09:57:34;6.57;;;2.97;;
30697;SDS011;17448;47.200;10.902;2023-06-24T10:00:01;5.43;;;2.97;;
30697;SDS011;17448;47.200;10.902;2023-06-24T10:02:31;3.75;;;2.83;;
30697;SDS011;17448;47.200;10.902;2023-06-24T10:04:58;5.30;;;3.10;;
30697;SDS011;17448;47.200;10.902;2023-06-24T10:07:26;4.47;;;3.40;;
30697;SDS011;17448;47.200;10.902;2023-06-24T10:09:56;5.10;;;3.85;;
30697;SDS011;17448;47.200;10.902;2023-06-24T10:12:22;4.70;;;2.90;;
30697;SDS011;17448;47.200;10.902;2023-06-24T10:14:52;3.63;;;2.70;;
30697;SDS011;17448;47.200;10.902;2023-06-24T10:17:18;4.95;;;3.42;;
30697;SDS011;17448;47.200;10.902;2023-06-24T10:19:44;4.95;;;2.97;;
30697;SDS011;17448;47.200;10.902;2023-06-24T10:22:11;3.95;;;2.85;;
30697;SDS011;17448;47.200;10.902;2023-06-24T10:24:40;3.58;;;3.15;;
30697;SDS011;17448;47.200;10.902;2023-06-24T10:27:14;4.07;;;3.13;;
30697;SDS011;17448;47.200;10.902;2023-06-24T10:29:49;4.10;;;3.05;;
30697;SDS011;17448;47.200;10.902;2023-06-24T10:32:15;5.60;;;3.30;;
30697;SDS011;17448;47.200;10.902;2023-06-24T10:39:53;3.88;;;2.92;;
30697;SDS011;17448;47.200;10.902;2023-06-24T10:42:26;4.45;;;2.97;;
30697;SDS011;17448;47.200;10.902;2023-06-24T10:44:53;3.00;;;2.70;;
30697;SDS011;17448;47.200;10.902;2023-06-24T10:47:21;4.65;;;3.15;;
30697;SDS011;17448;47.200;10.902;2023-06-24T10:49:48;5.30;;;3.47;;
30697;SDS011;17448;47.200;10.902;2023-06-24T10:52:14;4.10;;;3.30;;
30697;SDS011;17448;47.200;10.902;2023-06-24T10:54:44;3.65;;;2.97;;
30697;SDS011;17448;47.200;10.902;2023-06-24T10:57:10;3.67;;;3.10;;
30697;SDS011;17448;47.200;10.902;2023-06-24T10:59:46;4.28;;;3.40;;
30697;SDS011;17448;47.200;10.902;2023-06-24T11:02:14;5.72;;;3.70;;
30697;SDS011;17448;47.200;10.902;2023-06-24T11:04:45;4.22;;;3.42;;
30697;SDS011;17448;47.200;10.902;2023-06-24T11:07:14;4.60;;;3.67;;
30697;SDS011;17448;47.200;10.902;2023-06-24T11:09:42;3.42;;;3.10;;
30697;SDS011;17448;47.200;10.902;2023-06-24T11:12:13;5.13;;;3.17;;
30697;SDS011;17448;47.200;10.902;2023-06-24T11:14:40;4.40;;;3.33;;
30697;SDS011;17448;47.200;10.902;2023-06-24T11:17:06;4.72;;;3.28;;
30697;SDS011;17448;47.200;10.902;2023-06-24T11:19:32;4.22;;;3.35;;
30697;SDS011;17448;47.200;10.902;2023-06-24T11:22:01;4.60;;;3.38;;
30697;SDS011;17448;47.200;10.902;2023-06-24T11:24:28;4.55;;;3.67;;
30697;SDS011;17448;47.200;10.902;2023-06-24T11:26:54;5.15;;;3.75;;
30697;SDS011;17448;47.200;10.902;2023-06-24T11:29:21;4.03;;;2.92;;
30697;SDS011;17448;47.200;10.902;2023-06-24T11:31:48;6.13;;;4.47;;
30697;SDS011;17448;47.200;10.902;2023-06-24T11:34:15;5.57;;;3.72;;
30697;SDS011;17448;47.200;10.902;2023-06-24T11:36:41;6.25;;;2.90;;
30697;SDS011;17448;47.200;10.902;2023-06-24T11:52:52;4.05;;;3.22;;
30697;SDS011;17448;47.200;10.902;2023-06-24T11:55:22;5.78;;;3.30;;
30697;SDS011;17448;47.200;10.902;2023-06-24T12:00:49;3.60;;;3.00;;
30697;SDS011;17448;47.200;10.902;2023-06-24T12:03:22;4.88;;;3.28;;
30697;SDS011;17448;47.200;10.902;2023-06-24T12:05:49;8.48;;;3.53;;
30697;SDS011;17448;47.200;10.902;2023-06-24T12:08:16;3.83;;;2.70;;
30697;SDS011;17448;47.200;10.902;2023-06-24T12:10:42;6.00;;;3.33;;
30697;SDS011;17448;47.200;10.902;2023-06-24T12:13:09;4.03;;;2.85;;
30697;SDS011;17448;47.200;10.902;2023-06-24T12:15:36;3.70;;;3.03;;
30697;SDS011;17448;47.200;10.902;2023-06-24T12:18:02;4.72;;;3.17;;
30697;SDS011;17448;47.200;10.902;2023-06-24T12:20:29;4.35;;;3.33;;
30697;SDS011;17448;47.200;10.902;2023-06-24T12:22:56;6.38;;;2.95;;
30697;SDS011;17448;47.200;10.902;2023-06-24T12:25:23;4.28;;;3.53;;
30697;SDS011;17448;47.200;10.902;2023-06-24T12:27:50;3.60;;;3.03;;
30697;SDS011;17448;47.200;10.902;2023-06-24T12:30:16;7.15;;;3.40;;
30697;SDS011;17448;47.200;10.902;2023-06-24T12:32:43;4.18;;;3.05;;
30697;SDS011;17448;47.200;10.902;2023-06-24T12:35:12;3.90;;;3.10;;
30697;SDS011;17448;47.200;10.902;2023-06-24T12:37:39;4.00;;;3.10;;
30697;SDS011;17448;47.200;10.902;2023-06-24T12:40:06;3.75;;;3.10;;
30697;SDS011;17448;47.200;10.902;2023-06-24T12:42:33;4.60;;;3.25;;
30697;SDS011;17448;47.200;10.902;2023-06-24T12:45:00;5.10;;;3.40;;
30697;SDS011;17448;47.200;10.902;2023-06-24T12:47:30;3.50;;;3.00;;
30697;SDS011;17448;47.200;10.902;2023-06-24T12:49:56;4.43;;;3.05;;
30697;SDS011;17448;47.200;10.902;2023-06-24T12:52:22;3.88;;;3.22;;
30697;SDS011;17448;47.200;10.902;2023-06-24T12:54:49;4.88;;;3.05;;
30697;SDS011;17448;47.200;10.902;2023-06-24T12:57:17;4.32;;;2.83;;
30697;SDS011;17448;47.200;10.902;2023-06-24T12:59:46;5.10;;;3.72;;
30697;SDS011;17448;47.200;10.902;2023-06-24T13:02:13;4.32;;;3.08;;
30697;SDS011;17448;47.200;10.902;2023-06-24T13:04:40;3.42;;;2.70;;
30697;SDS011;17448;47.200;10.902;2023-06-24T13:07:07;3.70;;;2.80;;
30697;SDS011;17448;47.200;10.902;2023-06-24T13:09:35;3.30;;;2.60;;
30697;SDS011;17448;47.200;10.902;2023-06-24T13:12:12;3.92;;;3.10;;
30697;SDS011;17448;47.200;10.902;2023-06-24T13:14:51;4.25;;;3.17;;
30697;SDS011;17448;47.200;10.902;2023-06-24T13:17:28;3.20;;;2.85;;
30697;SDS011;17448;47.200;10.902;2023-06-24T13:19:56;3.20;;;2.70;;
30697;SDS011;17448;47.200;10.902;2023-06-24T13:22:29;3.40;;;3.10;;
30697;SDS011;17448;47.200;10.902;2023-06-24T13:25:06;5.00;;;2.92;;
30697;SDS011;17448;47.200;10.902;2023-06-24T13:28:07;4.57;;;3.25;;
30697;SDS011;17448;47.200;10.902;2023-06-24T13:42:34;3.67;;;2.63;;
30697;SDS011;17448;47.200;10.902;2023-06-24T13:54:38;3.83;;;2.70;;
30697;SDS011;17448;47.200;10.902;2023-06-24T13:57:12;6.40;;;3.15;;
30697;SDS011;17448;47.200;10.902;2023-06-24T13:59:41;5.70;;;3.10;;
30697;SDS011;17448;47.200;10.902;2023-06-24T14:02:10;4.68;;;3.00;;
30697;SDS011;17448;47.200;10.902;2023-06-24T14:04:43;3.38;;;2.78;;
30697;SDS011;17448;47.200;10.902;2023-06-24T14:07:24;6.88;;;2.95;;
30697;SDS011;17448;47.200;10.902;2023-06-24T14:12:43;3.10;;;2.80;;
30697;SDS011;17448;47.200;10.902;2023-06-24T14:15:10;2.97;;;2.67;;
30697;SDS011;17448;47.200;10.902;2023-06-24T14:20:25;3.67;;;3.03;;
30697;SDS011;17448;47.200;10.902;2023-06-24T14:25:29;3.22;;;2.85;;
30697;SDS011;17448;47.200;10.902;2023-06-24T14:27:55;3.97;;;2.90;;
30697;SDS011;17448;47.200;10.902;2023-06-24T14:30:21;4.55;;;3.03;;
30697;SDS011;17448;47.200;10.902;2023-06-24T14:32:51;4.78;;;2.90;;
30697;SDS011;17448;47.200;10.902;2023-06-24T14:35:19;3.92;;;3.00;;
30697;SDS011;17448;47.200;10.902;2023-06-24T14:46:25;4.80;;;2.80;;
30697;SDS011;17448;47.200;10.902;2023-06-24T14:57:56;4.47;;;2.92;;
30697;SDS011;17448;47.200;10.902;2023-06-24T15:00:23;4.65;;;3.03;;
30697;SDS011;17448;47.200;10.902;2023-06-24T15:02:49;3.95;;;3.08;;
30697;SDS011;17448;47.200;10.902;2023-06-24T15:05:17;3.95;;;2.70;;
30697;SDS011;17448;47.200;10.902;2023-06-24T15:07:43;4.90;;;2.85;;
30697;SDS011;17448;47.200;10.902;2023-06-24T15:10:10;3.75;;;2.70;;
30697;SDS011;17448;47.200;10.902;2023-06-24T15:12:37;3.45;;;2.90;;
30697;SDS011;17448;47.200;10.902;2023-06-24T15:20:49;3.15;;;2.67;;
30697;SDS011;17448;47.200;10.902;2023-06-24T15:23:15;3.10;;;2.58;;
30697;SDS011;17448;47.200;10.902;2023-06-24T15:25:43;4.30;;;3.33;;
30697;SDS011;17448;47.200;10.902;2023-06-24T15:28:13;3.20;;;2.60;;
30697;SDS011;17448;47.200;10.902;2023-06-24T15:30:39;3.22;;;2.75;;
30697;SDS011;17448;47.200;10.902;2023-06-24T15:33:05;5.20;;;2.90;;
30697;SDS011;17448;47.200;10.902;2023-06-24T15:35:31;3.38;;;2.55;;
30697;SDS011;17448;47.200;10.902;2023-06-24T15:37:59;3.55;;;2.70;;
30697;SDS011;17448;47.200;10.902;2023-06-24T15:40:28;3.17;;;2.72;;
30697;SDS011;17448;47.200;10.902;2023-06-24T15:42:56;3.20;;;2.90;;
30697;SDS011;17448;47.200;10.902;2023-06-24T15:45:22;4.70;;;2.85;;
30697;SDS011;17448;47.200;10.902;2023-06-24T15:47:48;3.53;;;2.78;;
30697;SDS011;17448;47.200;10.902;2023-06-24T15:50:14;4.15;;;2.92;;
30697;SDS011;17448;47.200;10.902;2023-06-24T15:52:40;3.50;;;2.90;;
30697;SDS011;17448;47.200;10.902;2023-06-24T15:55:07;3.20;;;2.90;;
30697;SDS011;17448;47.200;10.902;2023-06-24T15:57:33;3.03;;;2.40;;
30697;SDS011;17448;47.200;10.902;2023-06-24T16:00:00;3.30;;;2.80;;
30697;SDS011;17448;47.200;10.902;2023-06-24T16:02:28;4.25;;;2.65;;
30697;SDS011;17448;47.200;10.902;2023-06-24T16:05:38;4.28;;;3.05;;
30697;SDS011;17448;47.200;10.902;2023-06-24T16:08:08;6.43;;;3.10;;